Latest Coastal Weather Observations for Mardie

IDW60701

Issued at 10:22 am WST Friday 27 May 2016 (issued every 10 minutes, with the page automatically refreshed every 10 minutes)

About coastal observations | Map of coastal stations | Coastal observations for WA | Marine services | Other Formats
Station Details ID: 005008 Name: MARDIE Lat: -21.19 Lon: 115.98 Height: 11.0 m
Data from the previous 72 hours. | See also: Recent months at Mardie
Date/Time
WST
Temp

°C
Wind Pressure Rain
since 9am
mm
Weather Cloud Vis
km
Sea
Height
m
Swell
Dir
 
Speed
knots
Gust
knots
hPa Trend Height
m
Period
s
Dir
27/10:00am 31.3 ENE 10 13 1015.5 - 0.0 - - - - - - -
27/09:30am 29.3 ENE 7 9 1015.7 - 0.0 - - - - - - -
27/09:00am 27.6 ENE 2 5 1015.7 - 0.0 - - - - - - -
27/08:30am 25.8 SE 1 3 1015.5 - 0.0 - - - - - - -
27/08:00am 23.2 S 1 3 1015.3 - 0.0 - - - - - - -
27/07:30am 21.0 S 2 3 1014.9 - 0.0 - - - - - - -
27/07:00am 20.0 SSW 3 5 1014.6 - 0.0 - - - - - - -
27/06:30am 19.8 SSW 4 6 1014.6 - 0.0 - - - - - - -
27/06:00am 19.5 SSW 5 6 1014.4 - 0.0 - - - - - - -
27/05:30am 19.6 SSW 3 5 1014.2 - 0.0 - - - - - - -
27/05:00am 19.9 SSW 4 5 1014.0 - 0.0 - - - - - - -
27/04:30am 20.3 SSW 6 7 1013.8 - 0.0 - - - - - - -
27/04:00am 20.0 SW 4 5 1013.7 - 0.0 - - - - - - -
27/03:30am 20.5 SSW 4 7 1013.7 - 0.0 - - - - - - -
27/03:00am 20.5 SSW 2 3 1013.7 - 0.0 - - - - - - -
27/02:30am 20.9 SW 5 6 1014.1 - 0.0 - - - - - - -
27/02:00am 21.1 SW 5 6 1014.3 - 0.0 - - - - - - -
27/01:30am 21.5 SW 5 5 1014.4 - 0.0 - - - - - - -
27/01:00am 21.9 SW 4 4 1014.4 - 0.0 - - - - - - -
27/12:30am 22.7 SSW 4 5 1014.5 - 0.0 - - - - - - -
27/12:00am 23.3 SW 5 6 1014.8 - 0.0 - - - - - - -
 
Date/Time
WST
Temp

°C
Wind Pressure Rain
since 9am
mm
Weather Cloud Vis
km
Sea
Height
m
Swell
Dir
 
Speed
knots
Gust
knots
hPa Trend Height
m
Period
s
Dir
26/11:30pm 24.1 SW 7 9 1014.7 - 0.0 - - - - - - -
26/11:00pm 23.9 SSW 7 9 1014.8 - 0.0 - - - - - - -
26/10:30pm 24.6 SW 7 9 1014.9 - 0.0 - - - - - - -
26/10:00pm 25.3 WSW 6 9 1014.8 - 0.0 - - - - - - -
26/09:30pm 25.2 WSW 6 8 1014.9 - 0.0 - - - - - - -
26/09:00pm 25.5 WSW 7 9 1014.8 - 0.0 - - - - - - -
26/08:30pm 25.8 WSW 7 9 1014.7 - 0.0 - - - - - - -
26/08:00pm 26.1 WSW 7 9 1014.6 - 0.0 - - - - - - -
26/07:30pm 26.4 W 6 7 1014.3 - 0.0 - - - - - - -
26/07:00pm 27.0 W 6 7 1014.0 - 0.0 - - - - - - -
26/06:30pm 28.7 SW 5 6 1013.7 - 0.0 - - - - - - -
26/06:00pm 29.9 SSW 5 7 1013.2 - 0.0 - - - - - - -
26/05:30pm 30.8 SW 8 10 1013.0 - 0.0 - - - - - - -
26/05:00pm 31.4 SSW 9 12 1012.8 - 0.0 - - - - - - -
26/04:30pm 31.6 SSW 9 14 1012.6 - 0.0 - - - - - - -
26/04:00pm 32.1 S 10 17 1012.7 - 0.0 - - - - - - -
26/03:30pm 32.1 SSW 11 16 1012.7 - 0.0 - - - - - - -
26/03:00pm 31.9 SSW 8 15 1012.6 - 0.0 - - - - - - -
26/02:30pm 32.8 S 10 14 1012.7 - 0.0 - - - - - - -
26/02:00pm 31.8 SSW 10 15 1013.0 - 0.0 - - - - - - -
26/01:30pm 31.3 SSW 10 13 1013.4 - 0.0 - - - - - - -
26/01:00pm 31.9 S 8 13 1013.6 - 0.0 - - - - - - -
26/12:30pm 31.1 SSW 9 21 1014.0 - 0.0 - - - - - - -
26/12:00pm 30.1 SSW 8 12 1014.4 - 0.0 - - - - - - -
26/11:30am 29.7 S 6 11 1015.0 - 0.0 - - - - - - -
26/11:00am 29.0 S 8 12 1015.2 - 0.0 - - - - - - -
26/10:30am 28.3 S 9 13 1015.7 - 0.0 - - - - - - -
26/10:00am 27.8 S 11 15 1016.1 - 0.0 - - - - - - -
26/09:30am 26.5 S 9 11 1016.0 - 0.0 - - - - - - -
26/09:00am 25.0 SSW 10 14 1015.9 - 0.0 - - - - - - -
26/08:30am 23.8 S 6 9 1015.5 - 0.0 - - - - - - -
26/08:00am 22.2 SSW 4 5 1015.2 - 0.0 - - - - - - -
26/07:30am 21.2 S 3 4 1015.0 - 0.0 - - - - - - -
26/07:00am 21.0 SSW 3 4 1014.7 - 0.0 - - - - - - -
26/06:30am 21.4 SSW 4 5 1014.6 - 0.0 - - - - - - -
26/06:00am 21.9 SW 4 5 1014.4 - 0.0 - - - - - - -
26/05:30am 22.4 SW 4 7 1014.2 - 0.0 - - - - - - -
26/05:00am 22.6 SW 6 10 1014.0 - 0.0 - - - - - - -
26/04:30am 22.1 WSW 4 6 1013.8 - 0.0 - - - - - - -
26/04:00am 21.5 SW 3 4 1013.8 - 0.0 - - - - - - -
26/03:30am 21.3 CALM 0 0 1013.6 - 0.0 - - - - - - -
26/03:00am 20.5 CALM 0 2 1013.7 - 0.0 - - - - - - -
26/02:30am 20.4 CALM 0 0 1013.9 - 0.0 - - - - - - -
26/02:00am 20.8 CALM 0 0 1014.1 - 0.0 - - - - - - -
26/01:30am 20.6 CALM 0 1 1014.3 - 0.0 - - - - - - -
26/01:00am 20.6 SSW 2 3 1014.3 - 0.0 - - - - - - -
26/12:30am 20.9 SSW 3 3 1014.4 - 0.0 - - - - - - -
26/12:00am 20.9 SSW 3 3 1014.2 - 0.0 - - - - - - -
 
Date/Time
WST
Temp

°C
Wind Pressure Rain
since 9am
mm
Weather Cloud Vis
km
Sea
Height
m
Swell
Dir
 
Speed
knots
Gust
knots
hPa Trend Height
m
Period
s
Dir
25/11:30pm 21.1 CALM 0 0 1014.3 - 0.0 - - - - - - -
25/11:00pm 21.2 CALM 0 0 1014.3 - 0.0 - - - - - - -
25/10:30pm 21.8 CALM 0 0 1014.2 - 0.0 - - - - - - -
25/10:00pm 22.3 CALM 0 0 1014.1 - 0.0 - - - - - - -
25/09:30pm 22.5 CALM 0 0 1014.3 - 0.0 - - - - - - -
25/09:00pm 22.8 WNW 2 3 1014.3 - 0.0 - - - - - - -
25/08:30pm 23.2 WNW 3 4 1014.3 - 0.0 - - - - - - -
25/08:00pm 23.4 WNW 4 5 1014.2 - 0.0 - - - - - - -
25/07:30pm 23.6 WNW 6 8 1013.8 - 0.0 - - - - - - -
25/07:00pm 23.7 WNW 7 10 1013.5 - 0.0 - - - - - - -
25/06:30pm 23.8 W 7 9 1013.0 - 0.0 - - - - - - -
25/06:00pm 24.1 WNW 7 11 1012.8 - 0.0 - - - - - - -
25/05:30pm 24.9 W 9 12 1012.4 - 0.0 - - - - - - -
25/05:00pm 25.9 W 10 13 1012.4 - 0.0 - - - - - - -
25/04:30pm 26.4 WNW 11 15 1012.3 - 0.0 - - - - - - -
25/04:00pm 26.8 W 13 16 1012.1 - 0.0 - - - - - - -
25/03:30pm 27.3 W 12 16 1012.2 - 0.0 - - - - - - -
25/03:00pm 27.6 W 12 16 1012.1 - 0.0 - - - - - - -
25/02:30pm 27.8 W 12 16 1012.1 - 0.0 - - - - - - -
25/02:00pm 28.0 WNW 11 15 1012.2 - 0.0 - - - - - - -
25/01:30pm 28.0 WNW 11 15 1012.4 - 0.0 - - - - - - -
25/01:00pm 28.5 WNW 9 15 1012.6 - 0.0 - - - - - - -
25/12:30pm 27.7 W 10 14 1013.1 - 0.0 - - - - - - -
25/12:00pm 27.6 WNW 8 11 1013.4 - 0.0 - - - - - - -
25/11:30am 27.0 WSW 6 12 1013.8 - 0.0 - - - - - - -
25/11:00am 26.5 SW 7 12 1014.0 - 0.0 - - - - - - -
25/10:30am 26.1 W 6 10 1014.2 - 0.0 - - - - - - -
25/10:00am 25.4 W 5 8 1014.4 - 0.0 - - - - - - -
25/09:30am 24.8 CALM 0 0 1014.5 - 0.0 - - - - - - -
25/09:00am 24.2 SE 1 3 1014.3 - - - - - - - - -
25/08:30am 23.2 SSE 2 4 1014.1 - - - - - - - - -
25/08:00am 22.4 SSE 1 3 1014.1 - - - - - - - - -
25/07:30am 20.5 ESE 1 2 1013.9 - - - - - - - - -
25/07:00am 19.2 SSE 2 2 1013.8 - - - - - - - - -
25/06:30am 19.2 CALM 0 0 1013.5 - - - - - - - - -
25/06:00am 19.5 S 3 3 1013.2 - - - - - - - - -
25/05:30am 20.1 S 4 5 1012.9 - - - - - - - - -
25/05:00am 20.4 S 3 4 1012.6 - - - - - - - - -
25/04:30am 20.6 SSW 4 5 1012.5 - - - - - - - - -
25/03:00am 21.1 SSW 4 5 1012.6 - 0.0 - - - - - - -
25/02:30am 21.6 SSW 4 5 1012.9 - 0.0 - - - - - - -
25/02:00am 21.1 S 3 4 1013.2 - 0.0 - - - - - - -
25/01:30am 20.0 CALM 0 0 1013.4 - 0.0 - - - - - - -
25/01:00am 20.4 CALM 0 0 1013.5 - 0.0 - - - - - - -
25/12:30am 20.7 CALM 0 0 1013.7 - 0.0 - - - - - - -
25/12:00am 20.5 CALM 0 0 1013.7 - 0.0 - - - - - - -
 
Date/Time
WST
Temp

°C
Wind Pressure Rain
since 9am
mm
Weather Cloud Vis
km
Sea
Height
m
Swell
Dir
 
Speed
knots
Gust
knots
hPa Trend Height
m
Period
s
Dir
24/11:30pm 20.9 CALM 0 0 1013.6 - 0.0 - - - - - - -
24/11:00pm 21.1 CALM 0 0 1013.6 - 0.0 - - - - - - -
24/10:30pm 21.6 CALM 0 0 1013.9 - 0.0 - - - - - - -
24/10:00pm 22.0 CALM 0 0 1013.9 - 0.0 - - - - - - -
24/09:30pm 22.4 CALM 0 0 1014.0 - 0.0 - - - - - - -
24/09:00pm 22.9 CALM 0 0 1014.1 - 0.0 - - - - - - -
24/08:30pm 23.2 CALM 0 0 1014.2 - 0.0 - - - - - - -
24/08:00pm 23.5 CALM 0 0 1014.1 - 0.0 - - - - - - -
24/07:30pm 23.7 CALM 0 0 1014.0 - 0.0 - - - - - - -
24/07:00pm 24.0 CALM 0 0 1013.8 - 0.0 - - - - - - -
24/06:30pm 24.5 NW 2 3 1013.4 - 0.0 - - - - - - -
24/06:00pm 25.3 NW 5 7 1013.1 - 0.0 - - - - - - -
24/05:30pm 26.0 NNW 6 9 1012.9 - 0.0 - - - - - - -
24/05:00pm 27.1 NW 8 11 1012.6 - 0.0 - - - - - - -
24/04:30pm 27.4 NW 9 12 1012.6 - 0.0 - - - - - - -
24/04:00pm 27.9 NW 8 12 1012.6 - 0.0 - - - - - - -
24/03:30pm 27.7 NW 9 14 1012.6 - 0.0 - - - - - - -
24/03:00pm 28.1 WNW 8 12 1012.5 - 0.0 - - - - - - -
24/02:30pm 28.2 NW 7 12 1012.5 - 0.0 - - - - - - -
24/02:00pm 28.5 NW 8 11 1012.6 - 0.0 - - - - - - -
24/01:30pm 29.1 NW 8 12 1013.1 - 0.0 - - - - - - -
24/01:00pm 28.5 NNW 6 11 1013.4 - 0.0 - - - - - - -
24/12:30pm 29.4 N 6 12 1013.7 - 0.0 - - - - - - -
24/12:00pm 29.6 NW 4 11 1014.0 - 0.0 - - - - - - -
24/11:30am 29.6 NE 3 7 1014.3 - 0.0 - - - - - - -
24/11:00am 28.2 CALM 0 1 1014.6 - 0.0 - - - - - - -
24/10:30am 27.8 NNE 3 8 1015.1 - 0.0 - - - - - - -

Other Formats:

Comma delimited format used in spreadsheet applications
http://www.bom.gov.au/fwo/IDW60701/IDW60701.94306.axf

JavaScript Object Notation format (JSON) in row-major order
http://www.bom.gov.au/fwo/IDW60701/IDW60701.94306.json